Time;durP1;ratioP1;P1;durP2;ratioP2;P2;SDS_P1;SDS_P2;PMS_P1;PMS_P2;Temp;Humidity;BMP_temperature;BMP_pressure;BME280_temperature;BME280_humidity;BME280_pressure;Samples;Min_cycle;Max_cycle;Signal;HPM_P1;HPM_P2
2023/08/15 00:00:43;;;;;;;0.10;0.10;;;;;;;22.12;nan;100300.00;4982347;28;20043;-84
2023/08/15 00:03:08;;;;;;;0.00;0.00;;;;;;;22.07;nan;100294.47;4983693;28;20278;-84
2023/08/15 00:05:36;;;;;;;0.00;0.00;;;;;;;22.01;nan;100295.41;4981836;28;20037;-83
2023/08/15 00:08:02;;;;;;;0.00;0.00;;;;;;;21.99;nan;100290.25;4983642;28;20440;-84
2023/08/15 00:10:27;;;;;;;0.10;0.10;;;;;;;22.03;nan;100290.63;4981747;28;20042;-83
2023/08/15 00:12:53;;;;;;;0.00;0.00;;;;;;;22.10;nan;100298.59;4982832;28;20038;-83
2023/08/15 00:15:18;;;;;;;0.00;0.00;;;;;;;22.10;nan;100294.03;4982542;28;20058;-84
2023/08/15 00:17:44;;;;;;;0.00;0.00;;;;;;;22.11;nan;100286.75;4982376;28;20050;-84
2023/08/15 00:20:10;;;;;;;0.00;0.00;;;;;;;22.14;nan;100286.28;4982457;28;20027;-83
2023/08/15 00:22:35;;;;;;;0.10;0.10;;;;;;;22.19;nan;100286.41;4980620;28;20039;-84
2023/08/15 00:25:00;;;;;;;0.00;0.00;;;;;;;22.29;nan;100285.88;4980693;28;20516;-83
2023/08/15 00:27:26;;;;;;;0.10;0.10;;;;;;;22.34;nan;100284.09;4981948;28;20034;-84
2023/08/15 00:29:51;;;;;;;0.10;0.10;;;;;;;22.38;nan;100292.50;4981225;28;20041;-84
2023/08/15 00:32:16;;;;;;;0.00;0.00;;;;;;;22.34;nan;100283.28;4989946;28;20069;-84
2023/08/15 00:34:41;;;;;;;0.00;0.00;;;;;;;22.30;nan;100284.81;4981091;28;20271;-85
2023/08/15 00:37:07;;;;;;;0.10;0.10;;;;;;;22.25;nan;100286.31;4979168;28;20035;-85
2023/08/15 00:39:32;;;;;;;0.00;0.00;;;;;;;22.23;nan;100282.22;4979169;28;20282;-87
2023/08/15 00:41:57;;;;;;;0.10;0.10;;;;;;;22.21;nan;100282.44;4980045;28;20831;-84
2023/08/15 00:44:23;;;;;;;0.00;0.00;;;;;;;22.20;nan;100282.66;4971981;28;20412;-85
2023/08/15 00:46:48;;;;;;;0.00;0.00;;;;;;;22.22;nan;100277.91;4977772;28;20699;-85
2023/08/15 00:49:14;;;;;;;0.00;0.00;;;;;;;22.26;nan;100284.44;4979711;28;20026;-85
2023/08/15 00:51:40;;;;;;;0.10;0.10;;;;;;;22.26;nan;100279.91;4978729;28;20034;-85
2023/08/15 00:54:06;;;;;;;0.10;0.10;;;;;;;22.24;nan;100286.56;4978133;28;20050;-86
2023/08/15 00:56:31;;;;;;;0.00;0.00;;;;;;;22.22;nan;100280.59;4978346;28;20061;-88
2023/08/15 00:58:56;;;;;;;0.00;0.00;;;;;;;22.17;nan;100270.50;4979521;28;20034;-86
2023/08/15 01:01:24;;;;;;;0.00;0.00;;;;;;;22.15;nan;100272.59;4976984;28;20098;-86
2023/08/15 01:03:51;;;;;;;0.10;0.10;;;;;;;22.11;nan;100286.75;4977663;28;20038;-87
2023/08/15 01:06:17;;;;;;;0.10;0.10;;;;;;;22.08;nan;100287.25;4974374;28;20034;-85
2023/08/15 01:08:42;;;;;;;0.10;0.10;;;;;;;22.03;nan;100282.56;4975181;28;20042;-84
2023/08/15 01:11:08;;;;;;;0.10;0.10;;;;;;;21.96;nan;100269.19;4973030;28;20134;-86
2023/08/15 01:13:51;;;;;;;0.00;0.00;;;;;;;21.90;nan;100270.13;4975419;28;20035;-84
2023/08/15 01:16:23;;;;;;;0.00;0.00;;;;;;;21.84;nan;100268.38;4973036;28;20093;-85
2023/08/15 01:18:54;;;;;;;0.10;0.10;;;;;;;21.81;nan;100258.06;4975117;28;20298;-84
2023/08/15 01:21:25;;;;;;;0.00;0.00;;;;;;;21.82;nan;100265.09;4973406;28;20035;-85
2023/08/15 01:23:52;;;;;;;0.00;0.00;;;;;;;21.82;nan;100268.59;4974201;28;20118;-86
2023/08/15 01:26:17;;;;;;;0.00;0.00;;;;;;;21.81;nan;100263.47;4974420;28;20039;-85
2023/08/15 01:28:42;;;;;;;0.10;0.10;;;;;;;21.75;nan;100267.06;4973908;28;20039;-85
2023/08/15 01:31:13;;;;;;;0.10;0.10;;;;;;;21.67;nan;100265.53;4973229;28;20065;-85
2023/08/15 01:33:45;;;;;;;0.10;0.10;;;;;;;21.65;nan;100277.59;4972769;28;20046;-84
2023/08/15 01:36:19;;;;;;;0.10;0.10;;;;;;;21.63;nan;100275.13;4972828;28;20046;-85
2023/08/15 01:38:47;;;;;;;0.10;0.10;;;;;;;21.59;nan;100272.06;4973530;28;20034;-85
2023/08/15 01:41:15;;;;;;;0.10;0.10;;;;;;;21.58;nan;100272.31;4969853;28;20405;-84
2023/08/15 01:43:43;;;;;;;0.00;0.00;;;;;;;21.54;nan;100271.13;4973721;28;20046;-85
2023/08/15 01:46:08;;;;;;;0.10;0.10;;;;;;;21.50;nan;100275.31;4974049;28;20042;-85
2023/08/15 01:48:39;;;;;;;0.10;0.10;;;;;;;21.47;nan;100275.78;4973064;28;20047;-84
2023/08/15 01:51:04;;;;;;;0.10;0.10;;;;;;;21.42;nan;100279.97;4974654;28;20031;-86
2023/08/15 01:53:29;;;;;;;0.10;0.10;;;;;;;21.39;nan;100279.59;4972956;28;20034;-86
2023/08/15 01:55:55;;;;;;;0.10;0.10;;;;;;;21.36;nan;100277.38;4978814;28;20274;-85
2023/08/15 01:58:20;;;;;;;0.10;0.10;;;;;;;21.37;nan;100273.63;4975875;28;20045;-85
2023/08/15 02:00:46;;;;;;;0.10;0.10;;;;;;;21.38;nan;100268.00;4976331;28;20263;-87
2023/08/15 02:03:11;;;;;;;0.10;0.10;;;;;;;21.43;nan;100275.44;4975621;28;20365;-85
2023/08/15 02:05:37;;;;;;;0.00;0.00;;;;;;;21.43;nan;100280.81;4975778;28;20124;-84
2023/08/15 02:08:02;;;;;;;0.10;0.10;;;;;;;21.44;nan;100285.13;4975828;28;20408;-84
2023/08/15 02:10:27;;;;;;;0.10;0.10;;;;;;;21.38;nan;100272.56;4975290;28;20038;-83
2023/08/15 02:12:53;;;;;;;0.10;0.10;;;;;;;21.38;nan;100280.63;4975239;28;20295;-83
2023/08/15 02:15:18;;;;;;;0.10;0.10;;;;;;;21.41;nan;100289.09;4975115;28;20035;-84
2023/08/15 02:17:43;;;;;;;0.10;0.10;;;;;;;21.40;nan;100289.31;4976245;28;20266;-83
2023/08/15 02:20:09;;;;;;;0.10;0.10;;;;;;;21.35;nan;100292.66;4974148;28;20487;-83
2023/08/15 02:22:35;;;;;;;0.10;0.10;;;;;;;21.31;nan;100298.72;4974307;28;20297;-84
2023/08/15 02:25:00;;;;;;;0.10;0.10;;;;;;;21.28;nan;100308.06;4976321;28;20031;-83
2023/08/15 02:27:25;;;;;;;0.10;0.10;;;;;;;21.31;nan;100298.72;4974660;28;20041;-83
2023/08/15 02:29:51;;;;;;;0.10;0.10;;;;;;;21.36;nan;100301.56;4974841;28;20105;-83
2023/08/15 02:32:17;;;;;;;0.10;0.10;;;;;;;21.42;nan;100303.38;4970198;28;20433;-83
2023/08/15 02:34:43;;;;;;;0.10;0.10;;;;;;;21.47;nan;100319.63;4975037;28;20034;-83
2023/08/15 02:37:08;;;;;;;0.00;0.00;;;;;;;21.51;nan;100347.72;4975681;28;20050;-84
2023/08/15 02:39:33;;;;;;;0.10;0.10;;;;;;;21.55;nan;100375.00;4974014;28;20365;-84
2023/08/15 02:41:58;;;;;;;0.07;0.07;;;;;;;21.59;nan;100363.53;4974256;28;20077;-83
2023/08/15 02:44:24;;;;;;;0.10;0.10;;;;;;;21.68;nan;100353.28;4974709;28;20286;-86
2023/08/15 02:46:49;;;;;;;0.10;0.10;;;;;;;21.75;nan;100362.09;4974178;28;20039;-84
2023/08/15 02:49:14;;;;;;;0.00;0.00;;;;;;;21.82;nan;100360.13;4973295;28;20041;-85
2023/08/15 02:51:39;;;;;;;0.08;0.08;;;;;;;21.89;nan;100365.41;4972337;28;20282;-85
2023/08/15 02:54:05;;;;;;;0.10;0.10;;;;;;;21.88;nan;100365.63;4972850;28;20027;-85
2023/08/15 02:56:30;;;;;;;0.10;0.10;;;;;;;21.87;nan;100366.69;4972668;28;20299;-85
2023/08/15 02:58:55;;;;;;;0.00;0.00;;;;;;;21.79;nan;100355.19;4971848;28;20085;-86
2023/08/15 03:01:21;;;;;;;0.00;0.00;;;;;;;21.78;nan;100340.09;4973781;28;20274;-86
2023/08/15 03:03:47;;;;;;;0.00;0.00;;;;;;;21.70;nan;100353.88;4974208;28;20047;-84
2023/08/15 03:06:12;;;;;;;0.10;0.10;;;;;;;21.65;nan;100364.50;4976284;28;20027;-86
2023/08/15 03:08:38;;;;;;;0.00;0.00;;;;;;;21.61;nan;100341.78;4980699;28;20039;-86
2023/08/15 03:11:03;;;;;;;0.10;0.10;;;;;;;21.60;nan;100329.41;4983961;28;20561;-84
2023/08/15 03:13:28;;;;;;;0.00;0.00;;;;;;;21.59;nan;100333.94;4978903;28;20038;-87
2023/08/15 03:15:57;;;;;;;0.10;0.10;;;;;;;21.59;nan;100339.31;4977284;28;20043;-85
2023/08/15 03:18:22;;;;;;;0.10;0.10;;;;;;;21.60;nan;100334.78;4976272;28;20286;-87
2023/08/15 03:20:55;;;;;;;0.00;0.00;;;;;;;21.60;nan;100322.16;4975764;28;20031;-85
2023/08/15 03:23:20;;;;;;;0.10;0.10;;;;;;;21.60;nan;100316.75;4975735;28;20034;-88
2023/08/15 03:25:56;;;;;;;0.10;0.10;;;;;;;21.61;nan;100317.56;4976636;28;20102;-85
2023/08/15 03:28:22;;;;;;;0.10;0.10;;;;;;;21.58;nan;100323.44;4977265;28;22369;-87
2023/08/15 03:30:47;;;;;;;0.00;0.00;;;;;;;21.55;nan;100311.25;4976723;28;20485;-86
2023/08/15 03:33:12;;;;;;;0.10;0.10;;;;;;;21.54;nan;100314.16;4978963;28;20085;-85
2023/08/15 03:35:47;;;;;;;0.00;0.00;;;;;;;21.52;nan;100308.19;4977544;28;20031;-87
2023/08/15 03:38:17;;;;;;;0.10;0.10;;;;;;;21.49;nan;100317.53;4977375;28;20035;-88
2023/08/15 03:40:47;;;;;;;0.10;0.10;;;;;;;21.46;nan;100318.00;4980973;28;20035;-84
2023/08/15 03:43:13;;;;;;;0.00;0.00;;;;;;;21.48;nan;100321.28;4986008;28;20038;-84
2023/08/15 03:45:39;;;;;;;0.10;0.10;;;;;;;21.49;nan;100322.09;4983296;28;20042;-84
2023/08/15 03:48:07;;;;;;;0.00;0.00;;;;;;;21.48;nan;100321.28;4983007;28;20051;-84
2023/08/15 03:50:33;;;;;;;0.10;0.10;;;;;;;21.51;nan;100322.69;4983063;28;20097;-84
2023/08/15 03:52:58;;;;;;;0.00;0.00;;;;;;;21.52;nan;100321.63;4984615;28;20041;-84
2023/08/15 03:55:23;;;;;;;0.10;0.10;;;;;;;21.51;nan;100325.41;4982595;28;20095;-84
2023/08/15 03:57:49;;;;;;;0.10;0.10;;;;;;;21.50;nan;100313.81;4982951;28;20035;-84
2023/08/15 04:00:18;;;;;;;0.07;0.07;;;;;;;21.52;nan;100311.69;4981282;28;20031;-83
2023/08/15 04:02:43;;;;;;;0.10;0.10;;;;;;;21.53;nan;100321.41;4980796;28;20795;-84
2023/08/15 04:05:09;;;;;;;0.00;0.00;;;;;;;21.51;nan;100322.69;4982729;28;20035;-83
2023/08/15 04:07:34;;;;;;;0.10;0.10;;;;;;;21.50;nan;100321.03;4980255;28;20034;-84
2023/08/15 04:09:59;;;;;;;0.10;0.10;;;;;;;21.51;nan;100328.09;4980099;28;20125;-84
2023/08/15 04:12:25;;;;;;;0.00;0.00;;;;;;;21.48;nan;100347.38;4979606;28;20580;-83
2023/08/15 04:14:50;;;;;;;0.10;0.10;;;;;;;21.42;nan;100368.75;4980952;28;20313;-83
2023/08/15 04:17:15;;;;;;;0.10;0.10;;;;;;;21.40;nan;100399.59;4979525;28;20049;-84
2023/08/15 04:19:40;;;;;;;0.10;0.10;;;;;;;21.39;nan;100436.44;4979310;28;20125;-83
2023/08/15 04:22:06;;;;;;;0.10;0.10;;;;;;;21.44;nan;100445.72;4979799;28;20274;-84
2023/08/15 04:24:31;;;;;;;0.00;0.00;;;;;;;21.46;nan;100443.63;4979962;28;20030;-83
2023/08/15 04:26:59;;;;;;;0.00;0.00;;;;;;;21.47;nan;100437.19;4979427;28;20041;-83
2023/08/15 04:29:24;;;;;;;0.03;0.03;;;;;;;21.44;nan;100433.09;4979996;28;20346;-84
2023/08/15 04:31:50;;;;;;;0.10;0.10;;;;;;;21.45;nan;100453.53;4979649;28;20059;-84
2023/08/15 04:34:15;;;;;;;0.10;0.10;;;;;;;21.37;nan;100459.22;4982323;28;20524;-84
2023/08/15 04:36:44;;;;;;;0.10;0.10;;;;;;;21.38;nan;100450.94;4983951;28;20270;-84
2023/08/15 04:39:10;;;;;;;0.10;0.10;;;;;;;21.39;nan;100462.50;4982455;28;20279;-84
2023/08/15 04:41:35;;;;;;;0.10;0.10;;;;;;;21.42;nan;100470.16;4982705;28;20236;-84
2023/08/15 04:44:00;;;;;;;0.03;0.03;;;;;;;21.39;nan;100478.63;4979701;28;20030;-84
2023/08/15 04:46:25;;;;;;;0.03;0.03;;;;;;;21.41;nan;100482.78;4979098;28;20046;-84
2023/08/15 04:48:51;;;;;;;0.10;0.10;;;;;;;21.37;nan;100483.41;4979197;28;20294;-83
2023/08/15 04:51:16;;;;;;;0.00;0.00;;;;;;;21.33;nan;100479.53;4978097;28;20035;-83
2023/08/15 04:53:41;;;;;;;0.00;0.00;;;;;;;21.27;nan;100475.06;4978340;28;20496;-84
2023/08/15 04:56:07;;;;;;;0.10;0.10;;;;;;;21.25;nan;100469.88;4977585;28;20058;-84
2023/08/15 04:58:32;;;;;;;0.10;0.10;;;;;;;21.27;nan;100473.19;4977905;28;20285;-84
2023/08/15 05:00:57;;;;;;;0.10;0.10;;;;;;;21.24;nan;100476.34;4979835;28;20852;-83
2023/08/15 05:03:22;;;;;;;0.10;0.10;;;;;;;21.24;nan;100487.09;4977705;28;20031;-84
2023/08/15 05:05:48;;;;;;;0.10;0.10;;;;;;;21.22;nan;100491.84;4979640;28;20037;-84
2023/08/15 05:08:13;;;;;;;0.10;0.10;;;;;;;21.19;nan;100484.25;4977999;28;20035;-83
2023/08/15 05:10:38;;;;;;;0.10;0.10;;;;;;;21.21;nan;100485.66;4978824;28;20042;-83
2023/08/15 05:13:04;;;;;;;0.08;0.08;;;;;;;21.27;nan;100496.56;4977703;28;20038;-83
2023/08/15 05:15:29;;;;;;;0.00;0.00;;;;;;;21.34;nan;100489.25;4978465;28;20031;-84
2023/08/15 05:17:55;;;;;;;0.10;0.10;;;;;;;21.44;nan;100481.50;4976912;28;20374;-84
2023/08/15 05:20:20;;;;;;;0.00;0.00;;;;;;;21.61;nan;100487.09;4973458;28;20035;-83
2023/08/15 05:22:48;;;;;;;0.10;0.10;;;;;;;21.73;nan;100474.53;4972365;28;20043;-83
2023/08/15 05:25:13;;;;;;;0.10;0.10;;;;;;;21.96;nan;100459.53;4975117;28;20413;-83
2023/08/15 05:27:38;;;;;;;0.00;0.00;;;;;;;22.19;nan;100456.91;4972269;28;20039;-83
2023/08/15 05:30:04;;;;;;;0.10;0.10;;;;;;;22.41;nan;100456.41;4976959;28;20104;-83
2023/08/15 05:32:29;;;;;;;0.00;0.00;;;;;;;22.64;nan;100461.00;4977477;28;20573;-83
2023/08/15 05:34:55;;;;;;;0.10;0.10;;;;;;;22.87;nan;100449.41;4978488;28;20130;-83
2023/08/15 05:37:20;;;;;;;0.00;0.00;;;;;;;23.15;nan;100440.63;4977742;28;20332;-83
2023/08/15 05:39:46;;;;;;;0.10;0.10;;;;;;;23.45;nan;100442.31;4975597;28;20035;-83
2023/08/15 05:42:17;;;;;;;0.00;0.00;;;;;;;23.79;nan;100445.16;4976314;28;20026;-84
2023/08/15 05:44:43;;;;;;;0.00;0.00;;;;;;;24.13;nan;100443.34;4976804;28;20067;-84
2023/08/15 05:47:08;;;;;;;0.10;0.10;;;;;;;24.39;nan;100436.50;4976351;28;20031;-84
2023/08/15 05:49:33;;;;;;;0.00;0.00;;;;;;;24.64;nan;100429.88;4989291;28;20047;-84
2023/08/15 05:52:00;;;;;;;0.00;0.00;;;;;;;24.80;nan;100423.63;4985833;28;20656;-84
2023/08/15 05:54:26;;;;;;;0.00;0.00;;;;;;;25.06;nan;100419.41;4985608;28;21794;-84
2023/08/15 05:56:51;;;;;;;0.00;0.00;;;;;;;25.07;nan;100418.31;4983297;28;20061;-84
2023/08/15 05:59:17;;;;;;;0.00;0.00;;;;;;;25.24;nan;100410.16;4982594;28;20038;-84
2023/08/15 06:01:42;;;;;;;0.00;0.00;;;;;;;25.54;nan;100411.59;4982276;28;20309;-84
2023/08/15 06:04:07;;;;;;;0.00;0.00;;;;;;;25.72;nan;100413.13;4981392;28;20031;-85
2023/08/15 06:06:33;;;;;;;0.00;0.00;;;;;;;25.78;nan;100404.81;4982791;28;20278;-84
2023/08/15 06:08:58;;;;;;;0.00;0.00;;;;;;;25.88;nan;100393.28;4978454;28;20297;-84
2023/08/15 06:11:23;;;;;;;0.00;0.00;;;;;;;26.04;nan;100389.66;4981930;28;20039;-84
2023/08/15 06:13:49;;;;;;;0.00;0.00;;;;;;;26.09;nan;100391.59;4978496;28;20130;-84
2023/08/15 06:16:14;;;;;;;0.00;0.00;;;;;;;26.24;nan;100393.59;4978868;28;20035;-85
2023/08/15 06:18:39;;;;;;;0.00;0.00;;;;;;;26.37;nan;100387.75;4978057;28;20074;-84
2023/08/15 06:21:04;;;;;;;0.00;0.00;;;;;;;26.63;nan;100386.06;4980982;28;20383;-84
2023/08/15 06:23:30;;;;;;;0.00;0.00;;;;;;;26.96;nan;100383.22;4980184;28;20038;-84
2023/08/15 06:25:55;;;;;;;0.00;0.00;;;;;;;27.21;nan;100393.41;4978292;28;20031;-84
2023/08/15 06:28:21;;;;;;;0.00;0.00;;;;;;;27.24;nan;100388.25;4976379;28;20121;-84
2023/08/15 06:30:46;;;;;;;0.00;0.00;;;;;;;27.33;nan;100399.44;4975149;28;20658;-84
2023/08/15 06:33:11;;;;;;;0.00;0.00;;;;;;;27.34;nan;100390.22;4975142;28;20046;-84
2023/08/15 06:35:37;;;;;;;0.00;0.00;;;;;;;27.45;nan;100394.56;4975586;28;20051;-84
2023/08/15 06:38:02;;;;;;;0.00;0.00;;;;;;;27.78;nan;100392.47;4975602;28;20362;-84
2023/08/15 06:40:27;;;;;;;0.00;0.00;;;;;;;28.00;nan;100386.00;4969730;28;20053;-84
2023/08/15 06:42:52;;;;;;;0.00;0.00;;;;;;;28.08;nan;100377.28;4973884;28;20031;-84
2023/08/15 06:45:19;;;;;;;0.00;0.00;;;;;;;28.20;nan;100380.59;4974260;28;20038;-84
2023/08/15 06:47:45;;;;;;;0.00;0.00;;;;;;;28.49;nan;100390.91;4966914;28;20509;-84
2023/08/15 06:50:10;;;;;;;0.00;0.00;;;;;;;28.52;nan;100387.63;4974115;28;20038;-84
2023/08/15 06:52:35;;;;;;;0.00;0.00;;;;;;;28.76;nan;100380.50;4974678;28;20039;-84
2023/08/15 06:55:03;;;;;;;0.00;0.00;;;;;;;28.75;nan;100381.59;4974879;28;20035;-84
2023/08/15 06:57:31;;;;;;;0.00;0.00;;;;;;;29.06;nan;100391.56;4974670;28;20023;-84
2023/08/15 06:59:56;;;;;;;0.00;0.00;;;;;;;28.88;nan;100391.06;4974119;28;20110;-84
2023/08/15 07:02:21;;;;;;;0.00;0.00;;;;;;;28.90;nan;100402.50;4972198;28;20077;-84
2023/08/15 07:04:48;;;;;;;0.00;0.00;;;;;;;28.83;nan;100401.97;4974937;28;20034;-84
2023/08/15 07:07:14;;;;;;;0.00;0.00;;;;;;;29.10;nan;100414.44;4972600;28;20297;-84
2023/08/15 07:09:39;;;;;;;0.00;0.00;;;;;;;29.35;nan;100411.63;4973114;28;20042;-84
2023/08/15 07:12:05;;;;;;;0.00;0.00;;;;;;;29.63;nan;100414.75;4981819;28;20034;-85
2023/08/15 07:14:33;;;;;;;0.00;0.00;;;;;;;29.98;nan;100412.88;4987071;28;20027;-84
2023/08/15 07:17:00;;;;;;;0.00;0.00;;;;;;;30.37;nan;100420.25;4983569;28;20030;-85
2023/08/15 07:19:25;;;;;;;0.00;0.00;;;;;;;30.72;nan;100415.53;4983531;28;20033;-84
2023/08/15 07:21:50;;;;;;;0.00;0.00;;;;;;;30.92;nan;100420.00;4992082;28;20107;-85
2023/08/15 07:24:17;;;;;;;0.00;0.00;;;;;;;31.35;nan;100422.75;4991768;28;20274;-85
2023/08/15 07:26:42;;;;;;;0.00;0.00;;;;;;;31.72;nan;100413.78;4989773;28;20255;-85
2023/08/15 07:29:08;;;;;;;0.00;0.00;;;;;;;31.73;nan;100427.16;4986507;28;20199;-85
2023/08/15 07:31:33;;;;;;;0.00;0.00;;;;;;;31.83;nan;100426.19;4985146;28;20286;-84
2023/08/15 07:34:03;;;;;;;0.00;0.00;;;;;;;32.09;nan;100434.03;4984079;28;20291;-84
2023/08/15 07:36:28;;;;;;;0.00;0.00;;;;;;;32.41;nan;100432.41;4983360;28;20277;-84
2023/08/15 07:38:53;;;;;;;0.00;0.00;;;;;;;32.79;nan;100439.38;4983498;28;20070;-84
2023/08/15 07:41:19;;;;;;;0.00;0.00;;;;;;;33.00;nan;100441.72;4982081;28;20031;-85
2023/08/15 07:43:44;;;;;;;0.00;0.00;;;;;;;32.98;nan;100438.47;4980079;28;20325;-84
2023/08/15 07:46:10;;;;;;;0.00;0.00;;;;;;;32.98;nan;100441.22;4980234;28;20562;-85
2023/08/15 07:48:35;;;;;;;0.00;0.00;;;;;;;33.32;nan;100442.75;4981323;28;20388;-85
2023/08/15 07:51:00;;;;;;;0.00;0.00;;;;;;;33.32;nan;100448.22;4979189;28;20054;-85
2023/08/15 07:53:25;;;;;;;0.00;0.00;;;;;;;33.46;nan;100443.53;4979339;28;20281;-84
2023/08/15 07:55:51;;;;;;;0.00;0.00;;;;;;;33.38;nan;100457.97;4980295;28;20270;-85
2023/08/15 07:58:16;;;;;;;0.00;0.00;;;;;;;33.55;nan;100454.59;4977587;28;20085;-85
2023/08/15 08:00:42;;;;;;;0.00;0.00;;;;;;;33.70;nan;100457.00;4978371;28;20054;-85
2023/08/15 08:03:08;;;;;;;0.00;0.00;;;;;;;33.96;nan;100449.00;4979341;28;20031;-85
2023/08/15 08:05:34;;;;;;;0.00;0.00;;;;;;;34.34;nan;100445.09;4978625;28;20034;-85
2023/08/15 08:08:00;;;;;;;0.00;0.00;;;;;;;34.68;nan;100447.25;4971103;28;20066;-84
2023/08/15 08:10:25;;;;;;;0.00;0.00;;;;;;;34.95;nan;100434.44;4976830;28;20034;-85
2023/08/15 08:12:50;;;;;;;0.00;0.00;;;;;;;35.21;nan;100434.56;4976506;28;20031;-85
2023/08/15 08:15:16;;;;;;;0.00;0.00;;;;;;;35.58;nan;100426.84;4978089;28;20038;-85
2023/08/15 08:17:41;;;;;;;0.00;0.00;;;;;;;35.80;nan;100434.16;4976680;28;20031;-85
2023/08/15 08:20:11;;;;;;;0.00;0.00;;;;;;;35.91;nan;100438.19;4975106;28;20034;-85
2023/08/15 08:22:36;;;;;;;0.00;0.00;;;;;;;36.22;nan;100443.53;4977000;28;20030;-85
2023/08/15 08:25:11;;;;;;;0.00;0.00;;;;;;;36.41;nan;100454.19;4975788;28;20094;-85
2023/08/15 08:27:36;;;;;;;0.00;0.00;;;;;;;36.55;nan;100463.06;4977191;28;20143;-85
2023/08/15 08:30:01;;;;;;;0.00;0.00;;;;;;;36.77;nan;100466.72;4971217;28;20039;-85
2023/08/15 08:32:27;;;;;;;0.00;0.00;;;;;;;36.97;nan;100460.50;4972128;28;20281;-85
2023/08/15 08:34:52;;;;;;;0.00;0.00;;;;;;;36.79;nan;100469.97;4982262;28;20042;-85
2023/08/15 08:37:17;;;;;;;0.00;0.00;;;;;;;36.40;nan;100477.34;4981942;28;20274;-85
2023/08/15 08:39:42;;;;;;;0.00;0.00;;;;;;;36.01;nan;100481.09;4978727;28;20065;-85
2023/08/15 08:42:08;;;;;;;0.00;0.00;;;;;;;35.88;nan;100488.38;4979714;28;20497;-85
2023/08/15 08:44:35;;;;;;;0.00;0.00;;;;;;;36.12;nan;100494.22;4977172;28;20395;-85
2023/08/15 08:47:01;;;;;;;0.00;0.00;;;;;;;36.21;nan;100497.00;4969440;28;20110;-85
2023/08/15 08:49:27;;;;;;;0.00;0.00;;;;;;;36.21;nan;100490.66;4975443;28;20059;-85
2023/08/15 08:51:55;;;;;;;0.00;0.00;;;;;;;36.18;nan;100489.34;4974804;28;20042;-84
2023/08/15 08:54:20;;;;;;;0.00;0.00;;;;;;;36.66;nan;100491.09;4976233;28;20046;-85
2023/08/15 08:56:48;;;;;;;0.00;0.00;;;;;;;37.24;nan;100490.72;4976303;28;20035;-85
2023/08/15 08:59:16;;;;;;;0.00;0.00;;;;;;;37.59;nan;100480.28;4976745;28;20039;-85
2023/08/15 09:01:43;;;;;;;0.00;0.00;;;;;;;37.77;nan;100479.03;4975474;28;20034;-85
2023/08/15 09:04:08;;;;;;;0.00;0.00;;;;;;;37.69;nan;100493.69;4974641;28;20038;-85
2023/08/15 09:06:33;;;;;;;0.00;0.00;;;;;;;37.98;nan;100492.00;4975121;28;20406;-85
2023/08/15 09:08:59;;;;;;;0.00;0.00;;;;;;;38.47;nan;100495.00;4974128;28;20043;-85
2023/08/15 09:11:35;;;;;;;0.00;0.00;;;;;;;38.59;nan;100488.69;4974439;28;20027;-85
2023/08/15 09:14:04;;;;;;;0.00;0.00;;;;;;;39.04;nan;100491.41;4975635;28;20031;-84
2023/08/15 09:16:30;;;;;;;0.00;0.00;;;;;;;39.06;nan;100499.38;4973876;28;20035;-85
2023/08/15 09:18:56;;;;;;;0.00;0.00;;;;;;;39.41;nan;100502.50;4971297;28;20424;-85
2023/08/15 09:21:23;;;;;;;0.00;0.00;;;;;;;39.13;nan;100504.34;4973717;28;20081;-85
2023/08/15 09:23:51;;;;;;;0.00;0.00;;;;;;;38.37;nan;100503.69;4974624;28;20054;-85
2023/08/15 09:26:16;;;;;;;;;;;;;;;37.55;nan;100501.44;4974765;28;20027;-85
2023/08/15 09:28:43;;;;;;;0.00;0.00;;;;;;;36.89;nan;100505.44;4973222;28;19914;-85
2023/08/15 09:31:10;;;;;;;0.00;0.00;;;;;;;37.26;nan;100499.44;4971387;28;20039;-84
2023/08/15 09:33:37;;;;;;;0.00;0.00;;;;;;;38.07;nan;100503.81;4972671;28;20041;-85
2023/08/15 09:36:05;;;;;;;0.00;0.00;;;;;;;38.58;nan;100514.72;4971894;28;20038;-84
2023/08/15 09:38:30;;;;;;;0.00;0.00;;;;;;;38.65;nan;100514.97;4971625;28;20050;-85
2023/08/15 09:40:56;;;;;;;0.00;0.00;;;;;;;38.23;nan;100506.75;4972074;28;20043;-84
2023/08/15 09:43:21;;;;;;;0.00;0.00;;;;;;;38.26;nan;100508.84;4969218;28;20425;-85
2023/08/15 09:45:48;;;;;;;0.00;0.00;;;;;;;38.53;nan;100506.66;4986502;28;20053;-85
2023/08/15 09:48:16;;;;;;;0.00;0.00;;;;;;;38.83;nan;100507.28;4970711;28;20039;-85
2023/08/15 09:50:43;;;;;;;0.00;0.00;;;;;;;38.14;nan;100504.09;4970049;28;20039;-85
2023/08/15 09:53:09;;;;;;;0.00;0.00;;;;;;;37.37;nan;100509.75;4970209;28;20031;-85
2023/08/15 09:55:36;;;;;;;0.00;0.00;;;;;;;36.54;nan;100502.75;4969783;28;20158;-85
2023/08/15 09:58:02;;;;;;;0.00;0.00;;;;;;;35.66;nan;100505.81;4970365;28;20103;-84
2023/08/15 10:00:29;;;;;;;0.00;0.00;;;;;;;35.06;nan;100519.03;4972454;28;20096;-84
2023/08/15 10:03:14;;;;;;;0.00;0.00;;;;;;;34.55;nan;100514.03;4972211;28;20042;-84
2023/08/15 10:05:44;;;;;;;0.00;0.00;;;;;;;34.08;nan;100511.56;4970890;28;20522;-84
2023/08/15 10:08:09;;;;;;;0.00;0.00;;;;;;;33.64;nan;100515.84;4970678;28;20037;-84
2023/08/15 10:10:36;;;;;;;0.00;0.00;;;;;;;33.35;nan;100518.91;4972125;28;20565;-84
2023/08/15 10:13:03;;;;;;;0.00;0.00;;;;;;;33.20;nan;100525.47;4966777;28;20031;-85
2023/08/15 10:15:31;;;;;;;0.00;0.00;;;;;;;33.37;nan;100528.44;4981952;28;20054;-84
2023/08/15 10:17:57;;;;;;;0.00;0.00;;;;;;;33.77;nan;100528.72;4987621;28;20031;-85
2023/08/15 10:20:23;;;;;;;0.00;0.00;;;;;;;34.56;nan;100450.56;4984855;28;20027;-84
2023/08/15 10:22:50;;;;;;;0.00;0.00;;;;;;;35.96;nan;100547.31;4982010;28;20504;-84
2023/08/15 10:25:28;;;;;;;0.00;0.00;;;;;;;36.44;nan;100540.84;4977505;28;20035;-84
2023/08/15 10:27:55;;;;;;;0.00;0.00;;;;;;;36.43;nan;100545.53;4975054;28;20043;-85
2023/08/15 10:30:35;;;;;;;0.00;0.00;;;;;;;37.04;nan;100547.38;4974638;28;20465;-84
2023/08/15 10:33:12;;;;;;;0.00;0.00;;;;;;;37.27;nan;100553.47;4974191;28;20122;-85
2023/08/15 10:35:41;;;;;;;0.00;0.00;;;;;;;36.72;nan;100564.16;4975261;28;20463;-85
2023/08/15 10:38:13;;;;;;;0.00;0.00;;;;;;;36.36;nan;100561.75;4974119;28;20529;-86
2023/08/15 10:40:41;;;;;;;0.00;0.00;;;;;;;36.81;nan;100558.63;4972687;28;20035;-84
2023/08/15 10:43:09;;;;;;;0.00;0.00;;;;;;;37.28;nan;100555.91;4973711;28;20100;-84
2023/08/15 10:45:36;;;;;;;0.00;0.00;;;;;;;37.09;nan;100550.81;4971246;28;20552;-85
2023/08/15 10:48:02;;;;;;;0.00;0.00;;;;;;;36.70;nan;100552.66;4974793;28;20037;-85
2023/08/15 10:50:29;;;;;;;0.00;0.00;;;;;;;36.15;nan;100548.63;4975603;28;20034;-84
2023/08/15 10:52:58;;;;;;;0.00;0.00;;;;;;;35.65;nan;100546.28;4975059;28;20054;-84
2023/08/15 10:55:28;;;;;;;0.00;0.00;;;;;;;35.45;nan;100550.41;4973201;28;20051;-84
2023/08/15 10:57:55;;;;;;;0.00;0.00;;;;;;;35.02;nan;100547.47;4972793;28;20489;-85
2023/08/15 11:00:22;;;;;;;0.00;0.00;;;;;;;34.62;nan;100552.91;4974548;28;20041;-85
2023/08/15 11:02:48;;;;;;;0.00;0.00;;;;;;;34.36;nan;100552.69;4975089;28;20194;-84
2023/08/15 11:05:14;;;;;;;0.00;0.00;;;;;;;34.04;nan;100549.81;4985617;28;20106;-84
2023/08/15 11:07:41;;;;;;;0.00;0.00;;;;;;;33.70;nan;100541.22;4983087;28;20095;-85
2023/08/15 11:10:08;;;;;;;0.00;0.00;;;;;;;33.86;nan;100537.03;4979306;28;20029;-85
2023/08/15 11:12:34;;;;;;;0.00;0.00;;;;;;;35.28;nan;100531.13;4987402;28;20062;-85
2023/08/15 11:14:59;;;;;;;0.00;0.00;;;;;;;36.82;nan;100531.88;4980237;28;20035;-85
2023/08/15 11:17:25;;;;;;;0.00;0.00;;;;;;;37.38;nan;100532.66;4982184;28;20035;-85
2023/08/15 11:19:53;;;;;;;0.00;0.00;;;;;;;36.88;nan;100534.13;4978960;28;20039;-84
2023/08/15 11:22:21;;;;;;;0.00;0.00;;;;;;;36.26;nan;100529.06;4979651;28;20031;-84
2023/08/15 11:24:50;;;;;;;0.00;0.00;;;;;;;35.46;nan;100519.03;4981301;28;20109;-85
2023/08/15 11:27:16;;;;;;;0.00;0.00;;;;;;;34.66;nan;100518.19;4978572;28;20166;-84
2023/08/15 11:29:41;;;;;;;0.00;0.00;;;;;;;34.07;nan;100522.88;4981630;28;20514;-84
2023/08/15 11:32:08;;;;;;;0.00;0.00;;;;;;;33.43;nan;100515.44;4980381;28;20034;-85
2023/08/15 11:34:38;;;;;;;0.00;0.00;;;;;;;32.74;nan;100523.56;4982183;28;20031;-84
2023/08/15 11:37:04;;;;;;;0.00;0.00;;;;;;;32.21;nan;100512.91;4981792;28;20054;-84